sensor_id;sensor_type;location;lat;lon;timestamp;P1;durP1;ratioP1;P2;durP2;ratioP2
56469;SDS011;42374;51.464;-2.590;2022-07-29T00:00:46;3.78;;;1.98;;
56469;SDS011;42374;51.464;-2.590;2022-07-29T00:03:12;4.70;;;2.10;;
56469;SDS011;42374;51.464;-2.590;2022-07-29T00:05:39;4.75;;;1.80;;
56469;SDS011;42374;51.464;-2.590;2022-07-29T00:08:06;5.00;;;1.92;;
56469;SDS011;42374;51.464;-2.590;2022-07-29T00:10:32;4.85;;;1.90;;
56469;SDS011;42374;51.464;-2.590;2022-07-29T00:12:58;4.78;;;1.75;;
56469;SDS011;42374;51.464;-2.590;2022-07-29T00:15:25;5.47;;;1.90;;
56469;SDS011;42374;51.464;-2.590;2022-07-29T00:17:51;5.55;;;2.40;;
56469;SDS011;42374;51.464;-2.590;2022-07-29T00:20:18;5.32;;;2.53;;
56469;SDS011;42374;51.464;-2.590;2022-07-29T00:22:44;9.00;;;2.28;;
56469;SDS011;42374;51.464;-2.590;2022-07-29T00:25:10;5.30;;;2.10;;
56469;SDS011;42374;51.464;-2.590;2022-07-29T00:27:37;4.93;;;2.10;;
56469;SDS011;42374;51.464;-2.590;2022-07-29T00:30:04;6.80;;;2.15;;
56469;SDS011;42374;51.464;-2.590;2022-07-29T00:32:30;6.05;;;1.98;;
56469;SDS011;42374;51.464;-2.590;2022-07-29T00:37:46;4.07;;;2.10;;
56469;SDS011;42374;51.464;-2.590;2022-07-29T00:40:12;4.07;;;1.75;;
56469;SDS011;42374;51.464;-2.590;2022-07-29T00:42:42;5.75;;;1.92;;
56469;SDS011;42374;51.464;-2.590;2022-07-29T00:45:08;3.70;;;1.98;;
56469;SDS011;42374;51.464;-2.590;2022-07-29T00:47:34;4.95;;;1.70;;
56469;SDS011;42374;51.464;-2.590;2022-07-29T00:50:00;6.00;;;2.13;;
56469;SDS011;42374;51.464;-2.590;2022-07-29T00:52:26;4.72;;;2.00;;
56469;SDS011;42374;51.464;-2.590;2022-07-29T00:54:52;4.85;;;2.17;;
56469;SDS011;42374;51.464;-2.590;2022-07-29T00:57:19;4.13;;;1.95;;
56469;SDS011;42374;51.464;-2.590;2022-07-29T00:59:45;6.90;;;2.00;;
56469;SDS011;42374;51.464;-2.590;2022-07-29T01:02:11;6.10;;;2.50;;
56469;SDS011;42374;51.464;-2.590;2022-07-29T01:04:37;4.50;;;2.08;;
56469;SDS011;42374;51.464;-2.590;2022-07-29T01:07:04;4.13;;;2.08;;
56469;SDS011;42374;51.464;-2.590;2022-07-29T01:09:34;4.13;;;1.90;;
56469;SDS011;42374;51.464;-2.590;2022-07-29T01:12:01;4.95;;;1.90;;
56469;SDS011;42374;51.464;-2.590;2022-07-29T01:14:27;4.93;;;2.30;;
56469;SDS011;42374;51.464;-2.590;2022-07-29T01:21:59;4.03;;;2.15;;
56469;SDS011;42374;51.464;-2.590;2022-07-29T01:24:31;8.02;;;2.20;;
56469;SDS011;42374;51.464;-2.590;2022-07-29T01:27:04;4.82;;;2.20;;
56469;SDS011;42374;51.464;-2.590;2022-07-29T01:29:49;3.67;;;2.40;;
56469;SDS011;42374;51.464;-2.590;2022-07-29T01:32:19;4.15;;;2.20;;
56469;SDS011;42374;51.464;-2.590;2022-07-29T01:40:02;5.22;;;3.35;;
56469;SDS011;42374;51.464;-2.590;2022-07-29T01:42:34;12.05;;;6.45;;
56469;SDS011;42374;51.464;-2.590;2022-07-29T01:47:35;5.30;;;2.90;;
56469;SDS011;42374;51.464;-2.590;2022-07-29T01:50:03;3.88;;;2.40;;
56469;SDS011;42374;51.464;-2.590;2022-07-29T01:52:36;3.83;;;2.03;;
56469;SDS011;42374;51.464;-2.590;2022-07-29T01:55:04;7.88;;;3.55;;
56469;SDS011;42374;51.464;-2.590;2022-07-29T01:57:33;7.75;;;2.40;;
56469;SDS011;42374;51.464;-2.590;2022-07-29T02:00:00;4.00;;;2.60;;
56469;SDS011;42374;51.464;-2.590;2022-07-29T02:02:28;7.65;;;2.20;;
56469;SDS011;42374;51.464;-2.590;2022-07-29T02:04:55;5.88;;;2.60;;
56469;SDS011;42374;51.464;-2.590;2022-07-29T02:07:23;13.65;;;6.40;;
56469;SDS011;42374;51.464;-2.590;2022-07-29T02:09:50;24.30;;;11.35;;
56469;SDS011;42374;51.464;-2.590;2022-07-29T02:12:18;19.30;;;9.45;;
56469;SDS011;42374;51.464;-2.590;2022-07-29T02:14:45;32.92;;;15.20;;
56469;SDS011;42374;51.464;-2.590;2022-07-29T02:17:13;16.83;;;6.65;;
56469;SDS011;42374;51.464;-2.590;2022-07-29T02:19:40;17.58;;;8.65;;
56469;SDS011;42374;51.464;-2.590;2022-07-29T02:22:09;21.27;;;8.68;;
56469;SDS011;42374;51.464;-2.590;2022-07-29T02:24:35;10.40;;;5.50;;
56469;SDS011;42374;51.464;-2.590;2022-07-29T02:27:02;7.78;;;3.85;;
56469;SDS011;42374;51.464;-2.590;2022-07-29T02:29:29;6.70;;;2.70;;
56469;SDS011;42374;51.464;-2.590;2022-07-29T02:31:56;7.88;;;2.80;;
56469;SDS011;42374;51.464;-2.590;2022-07-29T02:37:08;6.97;;;3.70;;
56469;SDS011;42374;51.464;-2.590;2022-07-29T02:39:35;6.70;;;3.00;;
56469;SDS011;42374;51.464;-2.590;2022-07-29T02:42:03;7.25;;;3.15;;
56469;SDS011;42374;51.464;-2.590;2022-07-29T02:44:31;4.75;;;2.20;;
56469;SDS011;42374;51.464;-2.590;2022-07-29T02:47:02;4.75;;;2.88;;
56469;SDS011;42374;51.464;-2.590;2022-07-29T02:49:48;6.63;;;2.10;;
56469;SDS011;42374;51.464;-2.590;2022-07-29T02:52:18;5.28;;;2.20;;
56469;SDS011;42374;51.464;-2.590;2022-07-29T02:57:16;9.60;;;2.58;;
56469;SDS011;42374;51.464;-2.590;2022-07-29T02:59:44;4.68;;;1.88;;
56469;SDS011;42374;51.464;-2.590;2022-07-29T03:02:11;4.15;;;2.20;;
56469;SDS011;42374;51.464;-2.590;2022-07-29T03:04:40;5.28;;;2.00;;
56469;SDS011;42374;51.464;-2.590;2022-07-29T03:07:07;5.00;;;2.05;;
56469;SDS011;42374;51.464;-2.590;2022-07-29T03:09:34;6.88;;;2.10;;
56469;SDS011;42374;51.464;-2.590;2022-07-29T03:12:01;3.40;;;2.00;;
56469;SDS011;42374;51.464;-2.590;2022-07-29T03:14:28;7.30;;;2.10;;
56469;SDS011;42374;51.464;-2.590;2022-07-29T03:16:54;3.90;;;2.00;;
56469;SDS011;42374;51.464;-2.590;2022-07-29T03:19:20;7.25;;;2.38;;
56469;SDS011;42374;51.464;-2.590;2022-07-29T03:21:46;8.90;;;2.33;;
56469;SDS011;42374;51.464;-2.590;2022-07-29T03:24:29;8.50;;;2.50;;
56469;SDS011;42374;51.464;-2.590;2022-07-29T03:26:56;4.00;;;2.70;;
56469;SDS011;42374;51.464;-2.590;2022-07-29T03:29:22;5.55;;;2.83;;
56469;SDS011;42374;51.464;-2.590;2022-07-29T03:31:48;7.93;;;3.20;;
56469;SDS011;42374;51.464;-2.590;2022-07-29T03:34:15;5.13;;;2.63;;
56469;SDS011;42374;51.464;-2.590;2022-07-29T03:36:41;8.30;;;2.88;;
56469;SDS011;42374;51.464;-2.590;2022-07-29T03:39:07;7.47;;;2.63;;
56469;SDS011;42374;51.464;-2.590;2022-07-29T03:41:35;4.95;;;2.90;;
56469;SDS011;42374;51.464;-2.590;2022-07-29T03:44:01;6.25;;;2.80;;
56469;SDS011;42374;51.464;-2.590;2022-07-29T03:46:28;7.03;;;3.17;;
56469;SDS011;42374;51.464;-2.590;2022-07-29T03:48:55;10.73;;;3.45;;
56469;SDS011;42374;51.464;-2.590;2022-07-29T03:51:23;7.03;;;3.03;;
56469;SDS011;42374;51.464;-2.590;2022-07-29T03:53:49;7.68;;;3.33;;
56469;SDS011;42374;51.464;-2.590;2022-07-29T03:58:44;5.70;;;2.78;;
56469;SDS011;42374;51.464;-2.590;2022-07-29T04:01:11;6.22;;;2.97;;
56469;SDS011;42374;51.464;-2.590;2022-07-29T04:03:37;7.80;;;2.83;;
56469;SDS011;42374;51.464;-2.590;2022-07-29T04:06:05;5.53;;;2.83;;
56469;SDS011;42374;51.464;-2.590;2022-07-29T04:08:35;4.50;;;3.00;;
56469;SDS011;42374;51.464;-2.590;2022-07-29T04:11:01;6.43;;;2.92;;
56469;SDS011;42374;51.464;-2.590;2022-07-29T04:13:27;6.68;;;3.55;;
56469;SDS011;42374;51.464;-2.590;2022-07-29T04:15:53;6.72;;;3.13;;
56469;SDS011;42374;51.464;-2.590;2022-07-29T04:18:19;8.75;;;2.80;;
56469;SDS011;42374;51.464;-2.590;2022-07-29T04:20:45;5.47;;;3.30;;
56469;SDS011;42374;51.464;-2.590;2022-07-29T04:23:11;7.55;;;3.72;;
56469;SDS011;42374;51.464;-2.590;2022-07-29T04:25:38;9.05;;;3.60;;
56469;SDS011;42374;51.464;-2.590;2022-07-29T04:28:04;6.50;;;3.15;;
56469;SDS011;42374;51.464;-2.590;2022-07-29T04:30:31;5.50;;;2.70;;
56469;SDS011;42374;51.464;-2.590;2022-07-29T04:32:58;5.65;;;3.08;;
56469;SDS011;42374;51.464;-2.590;2022-07-29T04:35:25;5.05;;;3.92;;
56469;SDS011;42374;51.464;-2.590;2022-07-29T04:37:52;8.48;;;3.22;;
56469;SDS011;42374;51.464;-2.590;2022-07-29T04:40:18;6.45;;;3.38;;
56469;SDS011;42374;51.464;-2.590;2022-07-29T04:42:44;3.78;;;2.72;;
56469;SDS011;42374;51.464;-2.590;2022-07-29T04:45:10;8.98;;;3.15;;
56469;SDS011;42374;51.464;-2.590;2022-07-29T04:47:36;6.35;;;3.47;;
56469;SDS011;42374;51.464;-2.590;2022-07-29T04:50:02;5.13;;;3.35;;
56469;SDS011;42374;51.464;-2.590;2022-07-29T04:52:30;7.82;;;3.42;;
56469;SDS011;42374;51.464;-2.590;2022-07-29T04:54:56;5.82;;;2.92;;
56469;SDS011;42374;51.464;-2.590;2022-07-29T04:57:22;7.82;;;2.90;;
56469;SDS011;42374;51.464;-2.590;2022-07-29T04:59:48;4.65;;;2.90;;
56469;SDS011;42374;51.464;-2.590;2022-07-29T05:02:14;6.28;;;3.63;;
56469;SDS011;42374;51.464;-2.590;2022-07-29T05:04:40;5.57;;;2.83;;
56469;SDS011;42374;51.464;-2.590;2022-07-29T05:07:06;9.63;;;3.28;;
56469;SDS011;42374;51.464;-2.590;2022-07-29T05:09:32;4.78;;;3.10;;
56469;SDS011;42374;51.464;-2.590;2022-07-29T05:11:58;5.95;;;3.25;;
56469;SDS011;42374;51.464;-2.590;2022-07-29T05:14:24;5.57;;;2.83;;
56469;SDS011;42374;51.464;-2.590;2022-07-29T05:16:50;6.55;;;3.20;;
56469;SDS011;42374;51.464;-2.590;2022-07-29T05:19:17;8.75;;;3.03;;
56469;SDS011;42374;51.464;-2.590;2022-07-29T05:21:47;6.78;;;3.22;;
56469;SDS011;42374;51.464;-2.590;2022-07-29T05:24:13;4.68;;;2.65;;
56469;SDS011;42374;51.464;-2.590;2022-07-29T05:26:39;6.75;;;3.05;;
56469;SDS011;42374;51.464;-2.590;2022-07-29T05:29:05;8.15;;;2.65;;
56469;SDS011;42374;51.464;-2.590;2022-07-29T05:31:31;5.95;;;2.63;;
56469;SDS011;42374;51.464;-2.590;2022-07-29T05:33:58;7.63;;;2.55;;
56469;SDS011;42374;51.464;-2.590;2022-07-29T05:36:26;5.75;;;3.03;;
56469;SDS011;42374;51.464;-2.590;2022-07-29T05:38:52;5.65;;;2.53;;
56469;SDS011;42374;51.464;-2.590;2022-07-29T05:41:19;8.23;;;2.90;;
56469;SDS011;42374;51.464;-2.590;2022-07-29T05:43:45;5.72;;;2.72;;
56469;SDS011;42374;51.464;-2.590;2022-07-29T05:46:11;2.97;;;2.40;;
56469;SDS011;42374;51.464;-2.590;2022-07-29T05:48:39;5.18;;;2.70;;
56469;SDS011;42374;51.464;-2.590;2022-07-29T05:51:05;5.03;;;2.58;;
56469;SDS011;42374;51.464;-2.590;2022-07-29T05:53:31;6.57;;;3.17;;
56469;SDS011;42374;51.464;-2.590;2022-07-29T05:55:57;8.43;;;2.83;;
56469;SDS011;42374;51.464;-2.590;2022-07-29T05:58:23;8.07;;;3.00;;
56469;SDS011;42374;51.464;-2.590;2022-07-29T06:00:49;5.60;;;2.63;;
56469;SDS011;42374;51.464;-2.590;2022-07-29T06:03:15;5.00;;;2.70;;
56469;SDS011;42374;51.464;-2.590;2022-07-29T06:05:41;4.30;;;2.55;;
56469;SDS011;42374;51.464;-2.590;2022-07-29T06:08:07;9.02;;;3.33;;
56469;SDS011;42374;51.464;-2.590;2022-07-29T06:10:37;9.77;;;3.05;;
56469;SDS011;42374;51.464;-2.590;2022-07-29T06:13:03;4.45;;;2.92;;
56469;SDS011;42374;51.464;-2.590;2022-07-29T06:15:29;5.72;;;2.33;;
56469;SDS011;42374;51.464;-2.590;2022-07-29T06:17:55;4.30;;;2.20;;
56469;SDS011;42374;51.464;-2.590;2022-07-29T06:20:22;3.92;;;2.03;;
56469;SDS011;42374;51.464;-2.590;2022-07-29T06:22:48;6.30;;;3.00;;
56469;SDS011;42374;51.464;-2.590;2022-07-29T06:28:00;6.50;;;2.47;;
56469;SDS011;42374;51.464;-2.590;2022-07-29T06:30:26;5.45;;;2.75;;
56469;SDS011;42374;51.464;-2.590;2022-07-29T06:32:53;5.47;;;2.90;;
56469;SDS011;42374;51.464;-2.590;2022-07-29T06:35:21;7.00;;;2.50;;
56469;SDS011;42374;51.464;-2.590;2022-07-29T06:37:47;5.63;;;2.45;;
56469;SDS011;42374;51.464;-2.590;2022-07-29T06:40:13;5.03;;;2.10;;
56469;SDS011;42374;51.464;-2.590;2022-07-29T06:42:58;4.63;;;1.92;;
56469;SDS011;42374;51.464;-2.590;2022-07-29T06:45:26;6.47;;;1.95;;
56469;SDS011;42374;51.464;-2.590;2022-07-29T06:47:52;3.72;;;2.00;;
56469;SDS011;42374;51.464;-2.590;2022-07-29T06:50:18;5.22;;;1.30;;
56469;SDS011;42374;51.464;-2.590;2022-07-29T06:52:44;3.80;;;1.20;;
56469;SDS011;42374;51.464;-2.590;2022-07-29T06:55:12;6.78;;;1.50;;
56469;SDS011;42374;51.464;-2.590;2022-07-29T06:57:38;3.38;;;1.20;;
56469;SDS011;42374;51.464;-2.590;2022-07-29T07:00:04;6.45;;;1.20;;
56469;SDS011;42374;51.464;-2.590;2022-07-29T07:02:30;2.70;;;0.98;;
56469;SDS011;42374;51.464;-2.590;2022-07-29T07:04:57;3.88;;;1.38;;
56469;SDS011;42374;51.464;-2.590;2022-07-29T07:07:23;4.20;;;1.30;;
56469;SDS011;42374;51.464;-2.590;2022-07-29T07:09:49;2.92;;;1.00;;
56469;SDS011;42374;51.464;-2.590;2022-07-29T07:12:16;1.65;;;0.90;;
56469;SDS011;42374;51.464;-2.590;2022-07-29T07:17:26;5.00;;;0.80;;
56469;SDS011;42374;51.464;-2.590;2022-07-29T07:19:52;4.25;;;1.05;;
56469;SDS011;42374;51.464;-2.590;2022-07-29T07:22:18;3.50;;;1.00;;
56469;SDS011;42374;51.464;-2.590;2022-07-29T07:24:46;2.38;;;0.95;;
56469;SDS011;42374;51.464;-2.590;2022-07-29T07:27:12;4.20;;;0.90;;
56469;SDS011;42374;51.464;-2.590;2022-07-29T07:29:39;3.97;;;1.10;;
56469;SDS011;42374;51.464;-2.590;2022-07-29T07:32:06;4.25;;;0.90;;
56469;SDS011;42374;51.464;-2.590;2022-07-29T07:34:32;5.30;;;1.00;;
56469;SDS011;42374;51.464;-2.590;2022-07-29T07:36:59;1.95;;;0.70;;
56469;SDS011;42374;51.464;-2.590;2022-07-29T07:39:25;3.63;;;1.25;;
56469;SDS011;42374;51.464;-2.590;2022-07-29T07:41:51;10.95;;;0.90;;
56469;SDS011;42374;51.464;-2.590;2022-07-29T07:44:17;3.90;;;1.00;;
56469;SDS011;42374;51.464;-2.590;2022-07-29T07:46:43;3.67;;;0.90;;
56469;SDS011;42374;51.464;-2.590;2022-07-29T07:49:10;8.13;;;1.02;;
56469;SDS011;42374;51.464;-2.590;2022-07-29T07:51:36;3.13;;;0.80;;
56469;SDS011;42374;51.464;-2.590;2022-07-29T07:54:03;7.95;;;1.20;;
56469;SDS011;42374;51.464;-2.590;2022-07-29T07:56:29;6.88;;;0.90;;
56469;SDS011;42374;51.464;-2.590;2022-07-29T07:58:55;5.90;;;1.10;;
56469;SDS011;42374;51.464;-2.590;2022-07-29T08:01:21;5.93;;;0.93;;
56469;SDS011;42374;51.464;-2.590;2022-07-29T08:03:48;3.25;;;1.13;;
56469;SDS011;42374;51.464;-2.590;2022-07-29T08:06:15;3.95;;;0.90;;
56469;SDS011;42374;51.464;-2.590;2022-07-29T08:08:41;1.67;;;0.90;;
56469;SDS011;42374;51.464;-2.590;2022-07-29T08:11:07;2.55;;;0.82;;
56469;SDS011;42374;51.464;-2.590;2022-07-29T08:13:33;5.05;;;0.80;;
56469;SDS011;42374;51.464;-2.590;2022-07-29T08:16:00;4.18;;;0.88;;
56469;SDS011;42374;51.464;-2.590;2022-07-29T08:18:35;5.53;;;0.90;;
56469;SDS011;42374;51.464;-2.590;2022-07-29T08:21:01;2.58;;;1.02;;
56469;SDS011;42374;51.464;-2.590;2022-07-29T08:23:27;5.70;;;1.10;;
56469;SDS011;42374;51.464;-2.590;2022-07-29T08:29:06;54.15;;;8.15;;
56469;SDS011;42374;51.464;-2.590;2022-07-29T08:31:32;132.55;;;10.20;;
56469;SDS011;42374;51.464;-2.590;2022-07-29T08:33:58;9.25;;;1.30;;
56469;SDS011;42374;51.464;-2.590;2022-07-29T08:36:25;11.68;;;1.58;;
56469;SDS011;42374;51.464;-2.590;2022-07-29T08:38:51;11.23;;;1.60;;
56469;SDS011;42374;51.464;-2.590;2022-07-29T08:41:20;7.45;;;1.30;;
56469;SDS011;42374;51.464;-2.590;2022-07-29T08:43:47;3.53;;;0.98;;
56469;SDS011;42374;51.464;-2.590;2022-07-29T08:46:15;5.32;;;1.00;;
56469;SDS011;42374;51.464;-2.590;2022-07-29T08:48:42;3.30;;;0.90;;
56469;SDS011;42374;51.464;-2.590;2022-07-29T08:51:08;7.00;;;1.00;;
56469;SDS011;42374;51.464;-2.590;2022-07-29T08:53:40;2.08;;;1.33;;
56469;SDS011;42374;51.464;-2.590;2022-07-29T08:58:53;4.47;;;0.90;;
56469;SDS011;42374;51.464;-2.590;2022-07-29T09:01:24;4.78;;;1.10;;
56469;SDS011;42374;51.464;-2.590;2022-07-29T09:03:50;3.88;;;1.00;;
56469;SDS011;42374;51.464;-2.590;2022-07-29T09:06:20;3.63;;;1.05;;
56469;SDS011;42374;51.464;-2.590;2022-07-29T09:08:47;5.18;;;1.10;;
56469;SDS011;42374;51.464;-2.590;2022-07-29T09:11:13;5.55;;;1.10;;
56469;SDS011;42374;51.464;-2.590;2022-07-29T09:13:39;6.07;;;1.20;;
56469;SDS011;42374;51.464;-2.590;2022-07-29T09:16:06;2.72;;;1.33;;
56469;SDS011;42374;51.464;-2.590;2022-07-29T09:18:39;5.63;;;1.42;;
56469;SDS011;42374;51.464;-2.590;2022-07-29T09:21:06;8.82;;;2.00;;
56469;SDS011;42374;51.464;-2.590;2022-07-29T09:24:11;5.25;;;1.00;;
56469;SDS011;42374;51.464;-2.590;2022-07-29T09:26:46;5.45;;;1.25;;
56469;SDS011;42374;51.464;-2.590;2022-07-29T09:31:39;2.65;;;0.90;;
56469;SDS011;42374;51.464;-2.590;2022-07-29T09:34:07;5.20;;;1.10;;
56469;SDS011;42374;51.464;-2.590;2022-07-29T09:36:47;5.22;;;1.20;;
56469;SDS011;42374;51.464;-2.590;2022-07-29T09:39:14;11.98;;;1.58;;
56469;SDS011;42374;51.464;-2.590;2022-07-29T09:44:12;9.23;;;1.60;;
56469;SDS011;42374;51.464;-2.590;2022-07-29T09:46:39;2.67;;;1.02;;
56469;SDS011;42374;51.464;-2.590;2022-07-29T09:49:10;5.35;;;1.45;;
56469;SDS011;42374;51.464;-2.590;2022-07-29T09:51:38;3.20;;;1.02;;
56469;SDS011;42374;51.464;-2.590;2022-07-29T09:54:21;3.75;;;0.90;;
56469;SDS011;42374;51.464;-2.590;2022-07-29T09:56:48;5.35;;;1.30;;
56469;SDS011;42374;51.464;-2.590;2022-07-29T09:59:14;8.13;;;1.30;;
56469;SDS011;42374;51.464;-2.590;2022-07-29T10:01:40;27.65;;;4.18;;
56469;SDS011;42374;51.464;-2.590;2022-07-29T10:04:06;9.50;;;1.70;;
56469;SDS011;42374;51.464;-2.590;2022-07-29T10:09:18;26.80;;;4.60;;
56469;SDS011;42374;51.464;-2.590;2022-07-29T10:11:47;21.77;;;2.80;;
56469;SDS011;42374;51.464;-2.590;2022-07-29T10:14:29;69.75;;;8.70;;
56469;SDS011;42374;51.464;-2.590;2022-07-29T10:16:56;32.85;;;2.70;;
56469;SDS011;42374;51.464;-2.590;2022-07-29T10:19:23;26.60;;;2.63;;
56469;SDS011;42374;51.464;-2.590;2022-07-29T10:21:49;7.55;;;1.65;;
56469;SDS011;42374;51.464;-2.590;2022-07-29T10:24:15;5.65;;;1.20;;
56469;SDS011;42374;51.464;-2.590;2022-07-29T10:26:41;3.58;;;1.05;;
56469;SDS011;42374;51.464;-2.590;2022-07-29T10:29:07;5.82;;;1.02;;
56469;SDS011;42374;51.464;-2.590;2022-07-29T10:31:48;2.83;;;0.90;;
56469;SDS011;42374;51.464;-2.590;2022-07-29T10:42:22;50.75;;;5.15;;
56469;SDS011;42374;51.464;-2.590;2022-07-29T10:44:50;20.10;;;1.60;;
56469;SDS011;42374;51.464;-2.590;2022-07-29T10:49:59;7.28;;;1.15;;
56469;SDS011;42374;51.464;-2.590;2022-07-29T10:55:29;7.97;;;1.00;;
56469;SDS011;42374;51.464;-2.590;2022-07-29T11:00:40;2.65;;;0.80;;
56469;SDS011;42374;51.464;-2.590;2022-07-29T11:03:06;3.28;;;0.90;;
56469;SDS011;42374;51.464;-2.590;2022-07-29T11:08:36;11.60;;;1.30;;
56469;SDS011;42374;51.464;-2.590;2022-07-29T11:13:47;4.10;;;1.13;;
56469;SDS011;42374;51.464;-2.590;2022-07-29T11:16:17;7.15;;;1.05;;
56469;SDS011;42374;51.464;-2.590;2022-07-29T11:21:35;13.43;;;1.75;;
56469;SDS011;42374;51.464;-2.590;2022-07-29T11:24:17;2.50;;;0.88;;
56469;SDS011;42374;51.464;-2.590;2022-07-29T11:26:44;2.85;;;0.90;;
56469;SDS011;42374;51.464;-2.590;2022-07-29T11:29:20;4.25;;;1.00;;
56469;SDS011;42374;51.464;-2.590;2022-07-29T11:31:51;3.10;;;0.88;;
56469;SDS011;42374;51.464;-2.590;2022-07-29T11:39:38;2.25;;;0.73;;
56469;SDS011;42374;51.464;-2.590;2022-07-29T11:45:05;16.13;;;1.60;;
56469;SDS011;42374;51.464;-2.590;2022-07-29T11:50:05;2.72;;;0.90;;
56469;SDS011;42374;51.464;-2.590;2022-07-29T11:52:35;1.88;;;0.80;;
56469;SDS011;42374;51.464;-2.590;2022-07-29T11:55:03;7.72;;;0.90;;
56469;SDS011;42374;51.464;-2.590;2022-07-29T11:57:30;5.63;;;1.10;;
56469;SDS011;42374;51.464;-2.590;2022-07-29T11:59:56;3.42;;;0.98;;
56469;SDS011;42374;51.464;-2.590;2022-07-29T12:02:23;2.53;;;0.80;;
56469;SDS011;42374;51.464;-2.590;2022-07-29T12:07:15;3.45;;;1.00;;
56469;SDS011;42374;51.464;-2.590;2022-07-29T12:09:51;2.45;;;0.77;;
56469;SDS011;42374;51.464;-2.590;2022-07-29T12:12:18;3.88;;;0.75;;
56469;SDS011;42374;51.464;-2.590;2022-07-29T12:14:45;3.10;;;1.08;;
56469;SDS011;42374;51.464;-2.590;2022-07-29T12:20:10;2.30;;;0.80;;
56469;SDS011;42374;51.464;-2.590;2022-07-29T12:22:38;3.88;;;1.10;;
56469;SDS011;42374;51.464;-2.590;2022-07-29T12:25:08;2.90;;;0.82;;
56469;SDS011;42374;51.464;-2.590;2022-07-29T12:27:35;3.05;;;1.00;;
56469;SDS011;42374;51.464;-2.590;2022-07-29T12:30:05;6.45;;;2.53;;
56469;SDS011;42374;51.464;-2.590;2022-07-29T12:32:32;9.23;;;2.88;;
56469;SDS011;42374;51.464;-2.590;2022-07-29T12:35:01;13.02;;;6.78;;
56469;SDS011;42374;51.464;-2.590;2022-07-29T12:37:27;3.55;;;1.40;;
56469;SDS011;42374;51.464;-2.590;2022-07-29T12:39:53;4.93;;;1.33;;
56469;SDS011;42374;51.464;-2.590;2022-07-29T12:42:19;3.60;;;0.90;;
56469;SDS011;42374;51.464;-2.590;2022-07-29T12:44:50;5.15;;;0.82;;
56469;SDS011;42374;51.464;-2.590;2022-07-29T12:47:17;2.72;;;0.60;;
56469;SDS011;42374;51.464;-2.590;2022-07-29T12:49:43;1.70;;;0.80;;
56469;SDS011;42374;51.464;-2.590;2022-07-29T12:57:21;11.90;;;1.17;;
56469;SDS011;42374;51.464;-2.590;2022-07-29T13:00:07;5.18;;;0.85;;
56469;SDS011;42374;51.464;-2.590;2022-07-29T13:02:35;7.07;;;0.73;;
56469;SDS011;42374;51.464;-2.590;2022-07-29T13:05:01;7.35;;;1.02;;
56469;SDS011;42374;51.464;-2.590;2022-07-29T13:07:29;2.67;;;0.60;;
56469;SDS011;42374;51.464;-2.590;2022-07-29T13:10:17;4.20;;;1.17;;
56469;SDS011;42374;51.464;-2.590;2022-07-29T13:15:31;4.53;;;0.80;;
56469;SDS011;42374;51.464;-2.590;2022-07-29T13:17:57;2.35;;;0.70;;
56469;SDS011;42374;51.464;-2.590;2022-07-29T13:20:25;5.80;;;0.90;;
56469;SDS011;42374;51.464;-2.590;2022-07-29T13:22:52;16.33;;;1.33;;
56469;SDS011;42374;51.464;-2.590;2022-07-29T13:25:27;3.30;;;0.80;;
56469;SDS011;42374;51.464;-2.590;2022-07-29T13:27:53;4.28;;;1.00;;
56469;SDS011;42374;51.464;-2.590;2022-07-29T13:30:19;3.25;;;0.85;;
56469;SDS011;42374;51.464;-2.590;2022-07-29T13:32:46;2.47;;;0.68;;
56469;SDS011;42374;51.464;-2.590;2022-07-29T13:35:12;24.05;;;9.18;;
56469;SDS011;42374;51.464;-2.590;2022-07-29T13:37:38;3.55;;;1.38;;
56469;SDS011;42374;51.464;-2.590;2022-07-29T13:40:08;1.23;;;0.60;;
56469;SDS011;42374;51.464;-2.590;2022-07-29T13:42:35;2.50;;;0.70;;
56469;SDS011;42374;51.464;-2.590;2022-07-29T13:45:01;2.63;;;0.60;;
56469;SDS011;42374;51.464;-2.590;2022-07-29T13:47:27;2.72;;;0.75;;
56469;SDS011;42374;51.464;-2.590;2022-07-29T13:49:54;2.30;;;0.73;;
56469;SDS011;42374;51.464;-2.590;2022-07-29T13:52:20;2.58;;;0.70;;
56469;SDS011;42374;51.464;-2.590;2022-07-29T13:54:46;4.00;;;0.70;;
56469;SDS011;42374;51.464;-2.590;2022-07-29T13:57:12;4.80;;;0.80;;
56469;SDS011;42374;51.464;-2.590;2022-07-29T13:59:39;7.95;;;2.00;;
56469;SDS011;42374;51.464;-2.590;2022-07-29T14:02:05;2.38;;;0.70;;
56469;SDS011;42374;51.464;-2.590;2022-07-29T14:04:33;14.35;;;5.05;;
56469;SDS011;42374;51.464;-2.590;2022-07-29T14:06:59;2.30;;;0.70;;
56469;SDS011;42374;51.464;-2.590;2022-07-29T14:09:25;3.63;;;0.82;;
56469;SDS011;42374;51.464;-2.590;2022-07-29T14:11:51;4.63;;;1.20;;
56469;SDS011;42374;51.464;-2.590;2022-07-29T14:14:18;3.83;;;0.90;;
56469;SDS011;42374;51.464;-2.590;2022-07-29T14:16:45;1.83;;;0.70;;
56469;SDS011;42374;51.464;-2.590;2022-07-29T14:19:11;2.53;;;0.60;;
56469;SDS011;42374;51.464;-2.590;2022-07-29T14:21:37;2.60;;;0.88;;
56469;SDS011;42374;51.464;-2.590;2022-07-29T14:24:03;10.38;;;0.80;;
56469;SDS011;42374;51.464;-2.590;2022-07-29T14:29:16;4.07;;;1.00;;
56469;SDS011;42374;51.464;-2.590;2022-07-29T14:31:42;2.42;;;0.47;;
56469;SDS011;42374;51.464;-2.590;2022-07-29T14:34:08;4.68;;;0.80;;
56469;SDS011;42374;51.464;-2.590;2022-07-29T14:36:35;6.00;;;0.90;;
56469;SDS011;42374;51.464;-2.590;2022-07-29T14:39:01;4.78;;;0.80;;
56469;SDS011;42374;51.464;-2.590;2022-07-29T14:41:28;5.65;;;0.88;;
56469;SDS011;42374;51.464;-2.590;2022-07-29T14:43:57;5.43;;;1.13;;
56469;SDS011;42374;51.464;-2.590;2022-07-29T14:46:26;4.05;;;0.80;;
56469;SDS011;42374;51.464;-2.590;2022-07-29T14:48:52;3.00;;;0.85;;
56469;SDS011;42374;51.464;-2.590;2022-07-29T14:51:19;6.57;;;0.80;;
56469;SDS011;42374;51.464;-2.590;2022-07-29T14:53:45;2.00;;;0.68;;
56469;SDS011;42374;51.464;-2.590;2022-07-29T14:56:11;5.10;;;0.90;;
56469;SDS011;42374;51.464;-2.590;2022-07-29T14:58:37;1.60;;;0.82;;
56469;SDS011;42374;51.464;-2.590;2022-07-29T15:01:03;7.82;;;0.90;;
56469;SDS011;42374;51.464;-2.590;2022-07-29T15:03:29;5.35;;;0.93;;
56469;SDS011;42374;51.464;-2.590;2022-07-29T15:05:55;5.57;;;0.80;;
56469;SDS011;42374;51.464;-2.590;2022-07-29T15:08:21;3.80;;;1.02;;
56469;SDS011;42374;51.464;-2.590;2022-07-29T15:10:48;3.03;;;0.77;;
56469;SDS011;42374;51.464;-2.590;2022-07-29T15:13:14;1.48;;;0.63;;
56469;SDS011;42374;51.464;-2.590;2022-07-29T15:15:41;6.55;;;1.20;;
56469;SDS011;42374;51.464;-2.590;2022-07-29T15:18:07;6.60;;;1.02;;
56469;SDS011;42374;51.464;-2.590;2022-07-29T15:20:34;3.17;;;0.80;;
56469;SDS011;42374;51.464;-2.590;2022-07-29T15:23:00;3.55;;;0.80;;
56469;SDS011;42374;51.464;-2.590;2022-07-29T15:25:27;3.35;;;0.85;;
56469;SDS011;42374;51.464;-2.590;2022-07-29T15:27:53;3.28;;;0.93;;
56469;SDS011;42374;51.464;-2.590;2022-07-29T15:30:19;6.53;;;0.88;;
56469;SDS011;42374;51.464;-2.590;2022-07-29T15:32:45;3.08;;;0.85;;
56469;SDS011;42374;51.464;-2.590;2022-07-29T15:35:13;6.53;;;1.02;;
56469;SDS011;42374;51.464;-2.590;2022-07-29T15:37:39;4.20;;;1.00;;
56469;SDS011;42374;51.464;-2.590;2022-07-29T15:40:06;2.55;;;0.73;;
56469;SDS011;42374;51.464;-2.590;2022-07-29T15:42:33;6.30;;;0.90;;
56469;SDS011;42374;51.464;-2.590;2022-07-29T15:45:02;3.17;;;0.85;;
56469;SDS011;42374;51.464;-2.590;2022-07-29T15:47:29;4.35;;;0.82;;
56469;SDS011;42374;51.464;-2.590;2022-07-29T15:49:55;2.03;;;0.75;;
56469;SDS011;42374;51.464;-2.590;2022-07-29T15:52:21;2.50;;;0.80;;
56469;SDS011;42374;51.464;-2.590;2022-07-29T15:54:47;3.70;;;0.80;;
56469;SDS011;42374;51.464;-2.590;2022-07-29T15:57:14;4.22;;;0.80;;
56469;SDS011;42374;51.464;-2.590;2022-07-29T15:59:40;4.38;;;0.70;;
56469;SDS011;42374;51.464;-2.590;2022-07-29T16:02:06;1.75;;;0.50;;
56469;SDS011;42374;51.464;-2.590;2022-07-29T16:04:34;2.80;;;0.80;;
56469;SDS011;42374;51.464;-2.590;2022-07-29T16:07:00;4.25;;;0.80;;
56469;SDS011;42374;51.464;-2.590;2022-07-29T16:09:26;4.13;;;0.60;;